createdAt,value
2017-10-20T00:02:13.057Z,47.63
2017-10-20T00:04:42.980Z,49.93
2017-10-20T00:07:11.502Z,54.57
2017-10-20T00:09:40.287Z,44.93
2017-10-20T00:12:08.696Z,47.77
2017-10-20T00:14:37.432Z,54.80
2017-10-20T00:17:05.887Z,45.67
2017-10-20T00:19:34.282Z,47.63
2017-10-20T00:22:02.689Z,43.93
2017-10-20T00:24:32.121Z,44.87
2017-10-20T00:27:00.575Z,47.73
2017-10-20T00:29:28.953Z,44.30
2017-10-20T00:31:57.293Z,42.33
2017-10-20T00:34:25.736Z,47.77
2017-10-20T00:36:54.190Z,39.07
2017-10-20T00:39:22.653Z,46.93
2017-10-20T00:41:51.103Z,40.97
2017-10-20T00:46:58.044Z,52.43
2017-10-20T00:49:26.428Z,45.07
2017-10-20T00:51:54.769Z,42.50
2017-10-20T00:54:23.202Z,39.93
2017-10-20T00:56:51.639Z,37.80
2017-10-20T00:59:20.002Z,41.67
2017-10-20T01:01:48.432Z,44.37
2017-10-20T01:04:16.834Z,37.27
2017-10-20T01:06:45.242Z,46.80
2017-10-20T01:09:13.624Z,32.80
2017-10-20T01:11:41.963Z,42.83
2017-10-20T01:14:10.358Z,36.00
2017-10-20T01:16:38.688Z,40.30
2017-10-20T01:19:07.062Z,43.20
2017-10-20T01:21:35.556Z,39.73
2017-10-20T01:24:03.934Z,36.60
2017-10-20T01:26:32.347Z,37.60
2017-10-20T01:29:00.781Z,39.17
2017-10-20T01:31:29.844Z,41.47
2017-10-20T01:33:58.232Z,39.00
2017-10-20T01:36:26.554Z,40.40
2017-10-20T01:38:54.927Z,33.80
2017-10-20T01:41:24.464Z,38.40
2017-10-20T01:43:52.823Z,31.27
2017-10-20T01:46:21.176Z,33.10
2017-10-20T01:48:49.637Z,30.43
2017-10-20T01:51:17.987Z,27.37
2017-10-20T01:53:46.375Z,25.97
2017-10-20T01:56:14.803Z,22.20
2017-10-20T01:58:43.170Z,24.13
2017-10-20T02:01:11.588Z,19.83
2017-10-20T02:03:39.955Z,23.87
2017-10-20T02:06:08.326Z,16.13
2017-10-20T02:08:36.702Z,19.40
2017-10-20T02:11:05.380Z,18.40
2017-10-20T02:13:34.281Z,20.67
2017-10-20T02:16:02.887Z,20.97
2017-10-20T02:18:31.266Z,16.30
2017-10-20T02:21:00.002Z,22.00
2017-10-20T02:23:28.410Z,20.03
2017-10-20T02:25:56.813Z,16.70
2017-10-20T02:28:25.158Z,12.77
2017-10-20T02:30:53.563Z,17.63
2017-10-20T02:33:21.893Z,21.83
2017-10-20T02:35:50.292Z,18.23
2017-10-20T02:38:18.753Z,16.50
2017-10-20T02:40:47.239Z,16.23
2017-10-20T02:43:15.594Z,8.37
2017-10-20T02:45:44.043Z,13.73
2017-10-20T02:48:12.395Z,16.50
2017-10-20T02:50:41.627Z,13.37
2017-10-20T02:53:12.055Z,11.73
2017-10-20T02:55:40.376Z,18.77
2017-10-20T02:58:08.869Z,14.33
2017-10-20T03:00:37.378Z,15.87
2017-10-20T03:03:05.793Z,9.47
2017-10-20T03:05:34.169Z,10.63
2017-10-20T03:08:02.605Z,14.37
2017-10-20T03:10:31.694Z,13.83
2017-10-20T03:13:00.003Z,10.20
2017-10-20T03:15:28.497Z,19.47
2017-10-20T03:17:56.830Z,13.10
2017-10-20T03:20:25.224Z,21.70
2017-10-20T03:22:53.678Z,14.60
2017-10-20T03:25:22.080Z,14.97
2017-10-20T03:27:50.821Z,16.43
2017-10-20T03:30:19.189Z,21.83
2017-10-20T03:32:47.532Z,13.00
2017-10-20T03:35:16.060Z,12.23
2017-10-20T03:37:44.397Z,23.73
2017-10-20T03:40:12.729Z,12.40
2017-10-20T03:42:41.090Z,16.63
2017-10-20T03:45:09.425Z,10.83
2017-10-20T03:47:37.810Z,20.50
2017-10-20T03:50:06.190Z,14.00
2017-10-20T03:52:34.543Z,13.50
2017-10-20T03:55:02.940Z,17.50
2017-10-20T03:57:31.806Z,15.67
2017-10-20T04:00:00.152Z,18.03
2017-10-20T04:02:28.468Z,14.60
2017-10-20T04:04:56.826Z,11.50
2017-10-20T04:07:25.161Z,16.30
2017-10-20T04:09:53.541Z,17.03
2017-10-20T04:12:21.979Z,14.50
2017-10-20T04:14:50.353Z,13.70
2017-10-20T04:17:18.808Z,17.30
2017-10-20T04:19:47.152Z,18.23
2017-10-20T04:22:15.553Z,10.63
2017-10-20T04:24:44.649Z,15.20
2017-10-20T04:27:13.451Z,11.07
2017-10-20T04:29:41.816Z,17.03
2017-10-20T04:32:10.198Z,13.00
2017-10-20T04:34:38.735Z,11.77
2017-10-20T04:37:07.165Z,17.73
2017-10-20T04:39:35.508Z,13.97
2017-10-20T04:42:03.879Z,12.43
2017-10-20T04:44:32.311Z,12.70
2017-10-20T04:47:00.716Z,10.27
2017-10-20T04:49:29.143Z,11.30
2017-10-20T04:51:57.541Z,11.40
2017-10-20T04:54:25.929Z,20.20
2017-10-20T04:56:54.346Z,13.60
2017-10-20T04:59:22.739Z,17.83
2017-10-20T05:01:51.086Z,15.00
2017-10-20T05:04:19.589Z,14.70
2017-10-20T05:06:48.008Z,14.73
2017-10-20T05:09:16.428Z,10.27
2017-10-20T05:11:44.809Z,16.23
2017-10-20T05:14:13.423Z,11.90
2017-10-20T05:16:41.778Z,14.87
2017-10-20T05:19:10.281Z,11.10
2017-10-20T05:21:38.749Z,11.80
2017-10-20T05:24:07.186Z,14.47
2017-10-20T05:26:35.740Z,19.33
2017-10-20T05:29:04.146Z,11.90
2017-10-20T05:31:32.601Z,19.33
2017-10-20T05:34:01.060Z,24.80
2017-10-20T05:36:29.427Z,19.77
2017-10-20T05:38:57.861Z,14.80
2017-10-20T05:41:27.908Z,28.67
2017-10-20T05:43:56.366Z,17.03
2017-10-20T05:46:25.340Z,19.70
2017-10-20T05:48:53.726Z,11.97
2017-10-20T05:51:23.537Z,23.30
2017-10-20T05:53:51.914Z,15.00
2017-10-20T05:56:20.617Z,11.10
2017-10-20T05:58:49.078Z,18.93
2017-10-20T06:01:17.666Z,15.60
2017-10-20T06:03:47.590Z,13.97
2017-10-20T06:06:21.420Z,14.23
2017-10-20T06:08:50.018Z,14.97
2017-10-20T06:11:18.637Z,15.57
2017-10-20T06:13:47.126Z,18.10
2017-10-20T06:16:15.486Z,16.57
2017-10-20T06:18:43.927Z,21.47
2017-10-20T06:21:12.455Z,12.80
2017-10-20T06:23:40.900Z,15.10
2017-10-20T06:26:09.416Z,13.13
2017-10-20T06:28:37.857Z,14.90
2017-10-20T06:31:06.251Z,21.70
2017-10-20T06:33:35.182Z,21.80
2017-10-20T06:36:03.766Z,17.53
2017-10-20T06:38:32.526Z,21.60
2017-10-20T06:41:01.049Z,16.60
2017-10-20T06:43:29.441Z,15.53
2017-10-20T06:45:58.051Z,22.20
2017-10-20T06:48:26.502Z,12.33
2017-10-20T06:50:56.609Z,17.23
2017-10-20T06:53:25.000Z,16.73
2017-10-20T06:55:53.540Z,20.30
2017-10-20T06:58:22.095Z,13.03
2017-10-20T07:00:50.569Z,15.00
2017-10-20T07:03:19.277Z,25.77
2017-10-20T07:05:47.698Z,11.80
2017-10-20T07:08:17.128Z,20.67
2017-10-20T07:10:45.640Z,15.27
2017-10-20T07:13:15.431Z,12.40
2017-10-20T07:18:18.485Z,12.80
2017-10-20T07:20:47.722Z,19.23
2017-10-20T07:23:16.296Z,19.87
2017-10-20T07:28:18.105Z,22.10
2017-10-20T07:30:46.546Z,14.33
2017-10-20T07:33:14.988Z,18.60
2017-10-20T07:35:43.986Z,14.60
2017-10-20T07:38:12.356Z,20.63
2017-10-20T07:40:41.006Z,23.73
2017-10-20T07:43:09.680Z,15.13
2017-10-20T07:45:38.275Z,15.20
2017-10-20T07:48:06.947Z,15.10
2017-10-20T07:50:35.797Z,11.93
2017-10-20T07:53:04.187Z,15.77
2017-10-20T07:55:32.735Z,14.03
2017-10-20T07:58:01.547Z,11.23
2017-10-20T08:00:30.255Z,10.87
2017-10-20T08:03:03.709Z,17.63
2017-10-20T08:05:32.339Z,14.63
2017-10-20T08:08:00.893Z,9.20
2017-10-20T08:10:29.557Z,14.30
2017-10-20T08:12:58.192Z,11.90
2017-10-20T08:15:26.571Z,23.67
2017-10-20T08:17:55.598Z,10.67
2017-10-20T08:20:24.703Z,13.17
2017-10-20T08:22:53.389Z,11.60
2017-10-20T08:25:22.083Z,13.57
2017-10-20T08:27:50.542Z,10.07
2017-10-20T08:30:18.937Z,11.40
2017-10-20T08:32:47.554Z,18.40
2017-10-20T08:37:48.513Z,18.37
2017-10-20T08:40:16.971Z,11.87
2017-10-20T08:42:45.720Z,14.80
2017-10-20T08:45:14.333Z,16.50
2017-10-20T08:47:42.993Z,13.13
2017-10-20T08:50:11.484Z,25.60
2017-10-20T08:52:39.897Z,7.40
2017-10-20T08:55:08.445Z,14.87
2017-10-20T08:57:37.010Z,22.07
2017-10-20T09:00:05.982Z,8.80
2017-10-20T09:02:34.704Z,16.27
2017-10-20T09:05:03.336Z,7.80
2017-10-20T09:07:32.917Z,9.87
2017-10-20T09:10:01.576Z,14.07
2017-10-20T09:12:30.057Z,8.87
2017-10-20T09:14:58.655Z,13.50
2017-10-20T09:17:27.231Z,12.23
2017-10-20T09:19:56.108Z,7.80
2017-10-20T09:22:24.516Z,9.57
2017-10-20T09:24:52.934Z,12.03
2017-10-20T09:27:21.855Z,10.57
2017-10-20T09:29:50.222Z,10.10
2017-10-20T09:32:18.980Z,6.23
2017-10-20T09:34:47.336Z,6.03
2017-10-20T09:37:15.830Z,9.70
2017-10-20T09:42:17.307Z,12.60
2017-10-20T09:44:45.681Z,9.00
2017-10-20T09:47:14.066Z,17.77
2017-10-20T09:49:42.550Z,11.10
2017-10-20T09:52:12.885Z,5.03
2017-10-20T09:54:41.340Z,9.73
2017-10-20T09:57:10.039Z,15.63
2017-10-20T09:59:38.881Z,12.63
2017-10-20T10:02:07.385Z,9.57
2017-10-20T10:07:09.230Z,7.83
2017-10-20T10:09:37.793Z,10.40
2017-10-20T10:12:06.233Z,7.93
2017-10-20T10:14:36.453Z,14.90
2017-10-20T10:17:05.146Z,18.50
2017-10-20T10:19:33.596Z,11.30
2017-10-20T10:22:01.971Z,5.50
2017-10-20T10:24:30.481Z,19.40
2017-10-20T10:26:58.964Z,8.20
2017-10-20T10:34:32.629Z,13.97
2017-10-20T10:37:02.044Z,8.90
2017-10-20T10:39:30.828Z,9.83
2017-10-20T10:41:59.369Z,11.13
2017-10-20T10:47:00.292Z,6.67
2017-10-20T10:49:29.385Z,8.07
2017-10-20T10:51:58.412Z,13.80
2017-10-20T10:54:26.845Z,16.13
2017-10-20T10:56:55.440Z,10.97
2017-10-20T11:01:56.425Z,10.07
2017-10-20T11:04:25.094Z,12.50
2017-10-20T11:07:05.162Z,5.63
2017-10-20T11:09:35.366Z,9.10
2017-10-20T11:12:17.127Z,8.00
2017-10-20T11:14:45.588Z,8.40
2017-10-20T11:17:14.860Z,15.10
2017-10-20T11:19:43.310Z,7.40
2017-10-20T11:22:12.360Z,19.07
2017-10-20T11:24:40.825Z,9.73
2017-10-20T11:27:09.410Z,8.33
2017-10-20T11:29:37.839Z,8.53
2017-10-20T11:32:06.228Z,13.60
2017-10-20T11:34:34.716Z,11.10
2017-10-20T11:37:03.671Z,9.30
2017-10-20T11:39:32.414Z,15.17
2017-10-20T11:42:00.925Z,10.87
2017-10-20T11:44:29.960Z,12.93
2017-10-20T11:46:58.430Z,8.17
2017-10-20T11:49:26.904Z,7.00
2017-10-20T11:51:55.348Z,13.63
2017-10-20T11:54:24.179Z,19.53
2017-10-20T11:59:25.169Z,34.07
2017-10-20T12:01:53.585Z,14.10
2017-10-20T12:04:21.989Z,11.07
2017-10-20T12:06:50.700Z,11.37
2017-10-20T12:09:19.157Z,13.00
2017-10-20T12:14:20.144Z,6.20
2017-10-20T12:16:49.060Z,5.70
2017-10-20T12:21:50.559Z,7.40
2017-10-20T12:24:18.997Z,16.50
2017-10-20T12:29:21.179Z,11.20
2017-10-20T12:31:49.535Z,16.73
2017-10-20T12:34:17.906Z,12.53
2017-10-20T12:36:46.464Z,11.33
2017-10-20T12:39:15.022Z,6.37
2017-10-20T12:41:43.357Z,6.63
2017-10-20T12:44:11.803Z,10.70
2017-10-20T12:46:40.187Z,12.73
2017-10-20T12:49:08.738Z,13.00
2017-10-20T12:51:37.221Z,7.40
2017-10-20T12:54:05.689Z,17.00
2017-10-20T12:56:34.556Z,9.33
2017-10-20T12:59:03.543Z,6.53
2017-10-20T13:01:31.988Z,8.30
2017-10-20T13:04:00.440Z,6.60
2017-10-20T13:06:28.918Z,8.67
2017-10-20T13:08:57.402Z,10.23
2017-10-20T13:11:25.924Z,10.67
2017-10-20T13:13:54.284Z,7.43
2017-10-20T13:16:22.749Z,12.37
2017-10-20T13:18:51.388Z,5.17
2017-10-20T13:21:19.845Z,8.30
2017-10-20T13:23:48.247Z,8.20
2017-10-20T13:28:49.512Z,6.30
2017-10-20T13:31:18.035Z,11.07
2017-10-20T13:33:46.565Z,15.53
2017-10-20T13:38:47.584Z,11.70
2017-10-20T13:41:16.066Z,9.17
2017-10-20T13:43:44.543Z,6.07
2017-10-20T13:46:13.147Z,13.10
2017-10-20T13:48:41.577Z,11.30
2017-10-20T13:51:10.385Z,9.43
2017-10-20T13:53:38.905Z,10.63
2017-10-20T13:56:07.389Z,11.20
2017-10-20T13:58:35.803Z,5.87
2017-10-20T14:01:04.295Z,7.40
2017-10-20T14:03:32.804Z,5.03
2017-10-20T14:06:01.676Z,6.20
2017-10-20T14:08:33.879Z,12.90
2017-10-20T14:11:03.419Z,12.60
2017-10-20T14:13:32.848Z,7.23
2017-10-20T14:16:02.020Z,11.57
2017-10-20T14:18:30.763Z,8.90
2017-10-20T14:20:59.199Z,9.20
2017-10-20T14:23:27.593Z,5.47
2017-10-20T14:28:29.975Z,10.73
2017-10-20T14:31:02.091Z,11.73
2017-10-20T14:33:30.516Z,9.33
2017-10-20T14:35:59.512Z,8.43
2017-10-20T14:38:28.064Z,7.03
2017-10-20T14:40:57.300Z,6.77
2017-10-20T14:43:26.394Z,7.60
2017-10-20T14:45:54.858Z,12.13
2017-10-20T14:48:25.643Z,8.27
2017-10-20T14:56:02.062Z,6.60
2017-10-20T14:58:30.542Z,14.13
2017-10-20T15:00:59.131Z,7.03
2017-10-20T15:03:29.229Z,6.80
2017-10-20T15:05:57.753Z,8.60
2017-10-20T15:08:27.377Z,10.93
2017-10-20T15:10:56.410Z,8.40
2017-10-20T15:13:25.764Z,8.23
2017-10-20T15:18:27.890Z,9.30
2017-10-20T15:20:56.271Z,8.10
2017-10-20T15:23:24.755Z,21.73
2017-10-20T15:25:53.217Z,9.70
2017-10-20T15:28:22.165Z,7.67
2017-10-20T15:30:50.667Z,17.73
2017-10-20T15:35:51.803Z,11.97
2017-10-20T15:38:20.246Z,24.60
2017-10-20T15:45:55.265Z,17.90
2017-10-20T15:48:23.778Z,10.70
2017-10-20T15:50:52.403Z,13.57
2017-10-20T16:00:59.272Z,16.93
2017-10-20T16:03:27.680Z,13.67
2017-10-20T16:08:30.471Z,14.33
2017-10-20T16:10:58.935Z,10.57
2017-10-20T16:13:27.343Z,9.03
2017-10-20T16:15:55.814Z,9.60
2017-10-20T16:18:24.334Z,17.17
2017-10-20T16:25:57.987Z,10.10
2017-10-20T16:28:26.440Z,8.07
2017-10-20T16:30:54.923Z,13.00
2017-10-20T16:33:23.382Z,24.67
2017-10-20T16:38:27.432Z,15.87
2017-10-20T16:40:55.909Z,11.53
2017-10-20T16:43:24.355Z,9.97
2017-10-20T16:45:53.177Z,7.50
2017-10-20T16:48:21.693Z,7.93
2017-10-20T16:50:50.129Z,6.90
2017-10-20T16:53:18.771Z,13.97
2017-10-20T16:55:47.744Z,14.73
2017-10-20T16:58:20.642Z,12.00
2017-10-20T17:00:49.502Z,12.47
2017-10-20T17:05:53.259Z,21.40
2017-10-20T17:08:21.651Z,10.70
2017-10-20T17:10:50.291Z,8.67
2017-10-20T17:13:18.869Z,9.00
2017-10-20T17:15:47.302Z,8.83
2017-10-20T17:18:15.842Z,9.37
2017-10-20T17:23:17.210Z,10.67
2017-10-20T17:28:20.361Z,9.27
2017-10-20T17:33:28.981Z,13.13
2017-10-20T17:35:57.641Z,6.43
2017-10-20T17:38:26.124Z,10.63
2017-10-20T17:48:46.672Z,11.53
2017-10-20T17:51:16.329Z,16.47
2017-10-20T17:53:44.972Z,6.37
2017-10-20T17:56:13.528Z,10.80
2017-10-20T18:01:14.968Z,12.27
2017-10-20T18:03:44.172Z,8.80
2017-10-20T18:06:13.790Z,7.47
2017-10-20T18:08:42.368Z,8.63
2017-10-20T18:11:11.381Z,17.20
2017-10-20T18:13:39.984Z,11.80
2017-10-20T18:16:11.962Z,11.27
2017-10-20T18:18:41.244Z,8.70
2017-10-20T18:21:09.736Z,8.90
2017-10-20T18:23:38.772Z,9.30
2017-10-20T18:26:07.232Z,11.63
2017-10-20T18:28:35.753Z,12.10
2017-10-20T18:31:04.260Z,12.67
2017-10-20T18:36:08.240Z,9.63
2017-10-20T18:38:36.734Z,14.50
2017-10-20T18:41:05.251Z,8.27
2017-10-20T18:43:37.771Z,23.03
2017-10-20T18:46:06.552Z,10.10
2017-10-20T18:48:35.241Z,16.20
2017-10-20T18:51:03.844Z,10.60
2017-10-20T18:53:32.505Z,10.17
2017-10-20T18:56:01.301Z,7.60
2017-10-20T18:58:29.682Z,14.13
2017-10-20T19:00:58.271Z,7.10
2017-10-20T19:06:01.853Z,11.50
2017-10-20T19:08:30.400Z,10.53
2017-10-20T19:10:58.780Z,12.03
2017-10-20T19:16:01.900Z,18.33
2017-10-20T19:18:30.323Z,13.83
2017-10-20T19:20:58.834Z,14.53
2017-10-20T19:23:27.291Z,13.73
2017-10-20T19:25:55.790Z,13.87
2017-10-20T19:28:25.945Z,15.67
2017-10-20T19:30:54.482Z,14.43
2017-10-20T19:33:22.959Z,12.30
2017-10-20T19:35:51.403Z,9.50
2017-10-20T19:38:19.882Z,14.20
2017-10-20T19:40:48.454Z,9.53
2017-10-20T19:43:17.331Z,8.03
2017-10-20T19:48:24.857Z,11.20
2017-10-20T19:50:53.331Z,13.57
2017-10-20T19:53:21.805Z,15.47
2017-10-20T19:55:50.390Z,9.03
2017-10-20T19:58:18.930Z,12.60
2017-10-20T20:00:47.435Z,12.90
2017-10-20T20:03:15.999Z,16.67
2017-10-20T20:05:44.412Z,13.73
2017-10-20T20:08:12.944Z,17.20
2017-10-20T20:10:41.403Z,14.50
2017-10-20T20:13:10.876Z,19.37
2017-10-20T20:15:39.753Z,17.40
2017-10-20T20:18:08.411Z,11.13
2017-10-20T20:20:36.924Z,17.77
2017-10-20T20:25:40.571Z,29.27
2017-10-20T20:28:08.979Z,15.13
2017-10-20T20:30:37.424Z,17.97
2017-10-20T20:33:05.827Z,11.37
2017-10-20T20:35:34.543Z,15.33
2017-10-20T20:38:02.993Z,15.80
2017-10-20T20:40:31.514Z,12.80
2017-10-20T20:43:00.071Z,14.80
2017-10-20T20:45:28.460Z,22.37
2017-10-20T20:47:56.894Z,16.60
2017-10-20T20:50:25.375Z,13.60
2017-10-20T20:52:53.822Z,19.03
2017-10-20T20:55:22.205Z,12.43
2017-10-20T20:57:50.557Z,14.97
2017-10-20T21:00:19.033Z,16.17
2017-10-20T21:02:47.479Z,12.90
2017-10-20T21:05:15.857Z,11.03
2017-10-20T21:07:44.401Z,11.40
2017-10-20T21:10:12.865Z,20.67
2017-10-20T21:12:41.243Z,12.60
2017-10-20T21:15:09.663Z,12.63
2017-10-20T21:17:38.161Z,16.13
2017-10-20T21:20:06.559Z,12.77
2017-10-20T21:22:34.945Z,12.77
2017-10-20T21:25:03.401Z,13.30
2017-10-20T21:27:32.228Z,11.33
2017-10-20T21:30:00.660Z,14.43
2017-10-20T21:32:29.074Z,17.40
2017-10-20T21:34:57.449Z,9.90
2017-10-20T21:37:25.806Z,10.20
2017-10-20T21:39:54.189Z,11.30
2017-10-20T21:42:22.571Z,12.23
2017-10-20T21:44:51.033Z,13.07
2017-10-20T21:47:19.685Z,16.90
2017-10-20T21:49:48.129Z,12.37
2017-10-20T21:52:16.465Z,9.23
2017-10-20T21:54:44.925Z,18.10
2017-10-20T21:57:13.424Z,15.23
2017-10-20T21:59:41.822Z,10.90
2017-10-20T22:02:10.207Z,10.23
2017-10-20T22:04:38.577Z,9.60
2017-10-20T22:07:08.953Z,16.10
2017-10-20T22:09:37.441Z,14.70
2017-10-20T22:12:05.901Z,11.53
2017-10-20T22:14:34.550Z,14.17
2017-10-20T22:17:03.044Z,13.03
2017-10-20T22:19:31.520Z,13.90
2017-10-20T22:21:59.942Z,11.93
2017-10-20T22:24:28.355Z,12.10
2017-10-20T22:26:56.736Z,20.30
2017-10-20T22:29:26.360Z,10.10
2017-10-20T22:31:54.791Z,15.13
2017-10-20T22:34:23.126Z,18.63
2017-10-20T22:36:51.513Z,13.37
2017-10-20T22:41:54.648Z,14.03
2017-10-20T22:44:23.081Z,13.67
2017-10-20T22:46:51.544Z,13.77
2017-10-20T22:49:19.929Z,10.37
2017-10-20T22:51:48.594Z,14.77
2017-10-20T22:54:16.929Z,21.80
2017-10-20T22:56:45.340Z,9.70
2017-10-20T22:59:13.695Z,18.03
2017-10-20T23:01:43.096Z,16.47
2017-10-20T23:04:11.472Z,12.07
2017-10-20T23:06:39.828Z,9.80
2017-10-20T23:09:08.161Z,16.40
2017-10-20T23:11:36.546Z,13.40
2017-10-20T23:14:04.984Z,15.33
2017-10-20T23:16:33.468Z,19.50
2017-10-20T23:19:02.325Z,14.73
2017-10-20T23:21:30.650Z,9.87
2017-10-20T23:23:59.785Z,11.63
2017-10-20T23:26:28.386Z,13.10
2017-10-20T23:28:56.734Z,11.47
2017-10-20T23:31:25.296Z,17.00
2017-10-20T23:33:53.652Z,15.73
2017-10-20T23:36:22.091Z,12.53
2017-10-20T23:38:50.498Z,12.33
2017-10-20T23:41:18.946Z,10.23
2017-10-20T23:43:47.321Z,12.13
2017-10-20T23:46:15.673Z,16.70
2017-10-20T23:48:43.981Z,15.13
2017-10-20T23:51:12.576Z,13.47
2017-10-20T23:53:40.964Z,15.60
2017-10-20T23:56:09.462Z,14.23
2017-10-20T23:58:37.954Z,10.30
